Anchor Point, Alaska
Current Conditions -  °F | °C
As of 7:53 PM on Saturday 25 Oct 2014 (Local Time) from PAHO Reporting Station
Scattered Clouds Scattered Clouds  
Wind Chill: 32°   Ceiling: Unl
Heat Index: 32°   Visibility: 10mi
Dew Point: 23°   Wind: 3mph
Humidity: 69%   Direction: 30°NNE
Pressure: 29.82"   Gusts: NA
Location:  59.77°N, 151.82°W
Report Text: PAHO 260353Z 03003KT 10SM SCT120 00/M05 A2982 RMK AO2 SLP100 T00001050
Loading
Personal Weather Stations






























Interactive Weather Map
Tropical Storm Tracking
New forecast layout! Learn more

10-Day Weather Forecast

Advertisements
Track Severe Weather on mobile